createdAt,value
2022-07-29T00:04:43.721Z,26.26
2022-07-29T00:09:51.820Z,26.24
2022-07-29T00:14:55.753Z,26.21
2022-07-29T00:19:57.402Z,26.20
2022-07-29T00:24:59.195Z,26.16
2022-07-29T00:30:00.880Z,26.14
2022-07-29T00:35:21.238Z,26.13
2022-07-29T00:40:23.618Z,26.10
2022-07-29T00:45:25.587Z,26.08
2022-07-29T00:50:28.019Z,26.04
2022-07-29T00:55:30.091Z,26.00
2022-07-29T01:00:31.926Z,25.97
2022-07-29T01:05:50.666Z,25.92
2022-07-29T01:10:55.113Z,25.90
2022-07-29T01:16:03.967Z,25.86
2022-07-29T01:21:14.609Z,25.84
2022-07-29T01:26:21.959Z,25.79
2022-07-29T01:31:32.831Z,25.77
2022-07-29T01:36:44.517Z,25.73
2022-07-29T01:42:02.591Z,25.70
2022-07-29T01:47:12.587Z,25.66
2022-07-29T01:52:24.642Z,25.62
2022-07-29T01:57:30.218Z,25.59
2022-07-29T02:02:36.067Z,25.56
2022-07-29T02:07:38.881Z,25.50
2022-07-29T02:12:43.579Z,25.47
2022-07-29T02:18:02.158Z,25.44
2022-07-29T02:23:04.540Z,25.40
2022-07-29T02:28:09.289Z,25.36
2022-07-29T02:33:14.508Z,25.32
2022-07-29T02:38:36.392Z,25.29
2022-07-29T02:43:38.158Z,25.24
2022-07-29T02:48:53.005Z,25.19
2022-07-29T02:53:57.741Z,25.16
2022-07-29T02:59:04.063Z,25.11
2022-07-29T03:04:06.434Z,25.08
2022-07-29T03:09:13.231Z,25.05
2022-07-29T03:14:17.816Z,25.02
2022-07-29T03:19:21.408Z,25.00
2022-07-29T03:24:34.266Z,24.97
2022-07-29T03:29:36.022Z,24.94
2022-07-29T03:34:38.808Z,24.91
2022-07-29T03:39:42.460Z,24.87
2022-07-29T03:44:48.577Z,24.86
2022-07-29T03:49:53.509Z,24.84
2022-07-29T03:54:55.282Z,24.81
2022-07-29T03:59:57.742Z,24.80
2022-07-29T04:04:59.911Z,24.79
2022-07-29T04:10:01.630Z,24.79
2022-07-29T04:15:07.016Z,24.71
2022-07-29T04:20:09.491Z,24.68
2022-07-29T04:25:11.256Z,24.67
2022-07-29T04:30:13.352Z,24.62
2022-07-29T04:35:15.068Z,24.44
2022-07-29T04:40:16.846Z,24.32
2022-07-29T04:45:22.512Z,24.26
2022-07-29T04:50:24.698Z,24.23
2022-07-29T04:55:26.511Z,24.21
2022-07-29T05:00:33.250Z,24.25
2022-07-29T05:05:35.452Z,24.29
2022-07-29T05:10:39.049Z,24.33
2022-07-29T05:15:40.852Z,24.37
2022-07-29T05:20:42.648Z,24.40
2022-07-29T05:25:45.002Z,24.39
2022-07-29T05:30:46.917Z,24.37
2022-07-29T05:35:48.591Z,24.37
2022-07-29T05:40:50.353Z,24.38
2022-07-29T05:45:52.004Z,24.41
2022-07-29T05:50:54.428Z,24.43
2022-07-29T05:55:56.033Z,24.47
2022-07-29T06:01:01.740Z,24.51
2022-07-29T06:06:03.728Z,24.56
2022-07-29T06:11:05.989Z,24.58
2022-07-29T06:16:07.976Z,24.60
2022-07-29T06:21:10.913Z,24.61
2022-07-29T06:26:12.626Z,24.62
2022-07-29T06:31:14.429Z,24.62
2022-07-29T06:36:16.568Z,24.63
2022-07-29T06:41:19.449Z,24.60
2022-07-29T06:46:22.470Z,24.51
2022-07-29T06:51:24.375Z,24.40
2022-07-29T06:56:26.358Z,24.34
2022-07-29T07:01:28.010Z,24.24
2022-07-29T07:06:29.656Z,24.24
2022-07-29T07:11:31.626Z,24.32
2022-07-29T07:16:33.672Z,24.46
2022-07-29T07:21:41.541Z,24.64
2022-07-29T07:26:43.125Z,24.79
2022-07-29T07:31:44.772Z,24.90
2022-07-29T07:36:46.421Z,25.01
2022-07-29T07:41:48.301Z,25.14
2022-07-29T07:46:50.078Z,25.26
2022-07-29T07:51:53.519Z,25.42
2022-07-29T07:56:55.533Z,25.61
2022-07-29T08:01:57.768Z,25.79
2022-07-29T08:07:00.550Z,25.98
2022-07-29T08:12:04.951Z,26.15
2022-07-29T08:17:07.543Z,26.31
2022-07-29T08:22:09.200Z,26.47
2022-07-29T08:27:33.360Z,26.59
2022-07-29T08:32:52.560Z,26.66
2022-07-29T08:37:55.036Z,26.74
2022-07-29T08:42:56.686Z,26.82
2022-07-29T08:47:58.483Z,26.90
2022-07-29T08:53:00.764Z,26.98
2022-07-29T08:58:02.971Z,27.04
2022-07-29T09:03:05.928Z,27.17
2022-07-29T09:08:07.961Z,27.33
2022-07-29T09:13:10.178Z,27.44
2022-07-29T09:18:20.473Z,27.57
2022-07-29T09:23:32.492Z,27.72
2022-07-29T09:28:34.058Z,27.91
2022-07-29T09:33:36.669Z,28.05
2022-07-29T09:38:38.770Z,28.21
2022-07-29T09:43:41.557Z,28.30
2022-07-29T09:48:43.363Z,28.45
2022-07-29T09:53:44.997Z,28.63
2022-07-29T09:58:46.643Z,28.76
2022-07-29T10:03:53.069Z,28.86
2022-07-29T10:09:07.613Z,29.01
2022-07-29T10:14:09.488Z,29.16
2022-07-29T10:19:11.412Z,29.32
2022-07-29T10:24:14.866Z,29.50
2022-07-29T10:29:16.896Z,29.69
2022-07-29T10:34:31.706Z,29.90
2022-07-29T10:40:30.737Z,30.09
2022-07-29T10:45:32.565Z,30.21
2022-07-29T10:51:01.474Z,30.25
2022-07-29T10:56:23.539Z,30.34
2022-07-29T11:01:37.062Z,30.52
2022-07-29T11:07:13.737Z,30.63
2022-07-29T11:12:43.313Z,30.77
2022-07-29T11:18:01.441Z,30.83
2022-07-29T11:23:19.638Z,30.87
2022-07-29T11:28:25.495Z,30.97
2022-07-29T11:33:54.431Z,31.03
2022-07-29T11:39:37.204Z,31.09
2022-07-29T11:44:57.676Z,31.07
2022-07-29T11:50:02.225Z,31.06
2022-07-29T11:55:09.872Z,31.03
2022-07-29T12:00:14.666Z,31.01
2022-07-29T12:05:39.698Z,30.96
2022-07-29T12:10:51.739Z,30.90
2022-07-29T12:15:55.845Z,30.84
2022-07-29T12:21:06.225Z,30.78
2022-07-29T12:26:10.931Z,30.75
2022-07-29T12:31:44.101Z,30.71
2022-07-29T12:36:47.421Z,30.66
2022-07-29T12:41:52.928Z,30.59
2022-07-29T12:47:08.546Z,30.52
2022-07-29T12:52:26.059Z,30.46
2022-07-29T12:57:28.451Z,30.41
2022-07-29T13:02:31.629Z,30.27
2022-07-29T13:07:54.690Z,29.98
2022-07-29T13:13:11.174Z,29.56
2022-07-29T13:18:29.929Z,29.24
2022-07-29T13:23:31.518Z,29.11
2022-07-29T13:28:40.891Z,29.02
2022-07-29T13:33:45.988Z,28.82
2022-07-29T13:38:47.579Z,28.67
2022-07-29T13:43:50.099Z,28.63
2022-07-29T13:48:52.020Z,28.64
2022-07-29T13:53:57.614Z,28.63
2022-07-29T13:59:08.289Z,28.65
2022-07-29T14:04:11.248Z,28.71
2022-07-29T14:09:17.781Z,28.81
2022-07-29T14:14:20.506Z,28.95
2022-07-29T14:19:23.379Z,29.05
2022-07-29T14:24:25.576Z,29.03
2022-07-29T14:29:37.213Z,28.99
2022-07-29T14:34:40.569Z,29.01
2022-07-29T14:39:43.217Z,29.03
2022-07-29T14:44:45.243Z,29.09
2022-07-29T14:49:51.523Z,29.17
2022-07-29T14:54:53.392Z,29.31
2022-07-29T14:59:55.718Z,29.43
2022-07-29T15:04:57.685Z,29.56
2022-07-29T15:09:59.774Z,29.68
2022-07-29T15:15:01.617Z,29.69
2022-07-29T15:20:05.780Z,29.66
2022-07-29T15:25:07.807Z,29.71
2022-07-29T15:30:10.522Z,29.77
2022-07-29T15:35:29.728Z,29.79
2022-07-29T15:40:31.739Z,29.79
2022-07-29T15:45:40.992Z,29.79
2022-07-29T15:50:42.842Z,29.77
2022-07-29T15:55:48.807Z,29.73
2022-07-29T16:00:50.628Z,29.62
2022-07-29T16:05:52.406Z,29.52
2022-07-29T16:10:54.031Z,29.29
2022-07-29T16:16:02.091Z,29.06
2022-07-29T16:21:04.854Z,28.94
2022-07-29T16:26:07.066Z,28.75
2022-07-29T16:31:09.323Z,28.53
2022-07-29T16:36:11.111Z,28.35
2022-07-29T16:41:15.143Z,28.15
2022-07-29T16:46:18.780Z,28.06
2022-07-29T16:51:27.844Z,27.98
2022-07-29T16:56:34.478Z,27.93
2022-07-29T17:01:39.912Z,27.87
2022-07-29T17:06:42.518Z,27.84
2022-07-29T17:11:52.882Z,27.84
2022-07-29T17:17:01.370Z,27.85
2022-07-29T17:22:11.757Z,27.86
2022-07-29T17:27:22.682Z,27.90
2022-07-29T17:32:24.888Z,27.94
2022-07-29T17:37:28.845Z,27.99
2022-07-29T17:42:30.639Z,28.00
2022-07-29T17:47:40.402Z,28.02
2022-07-29T17:52:42.456Z,28.00
2022-07-29T17:57:44.111Z,27.97
2022-07-29T18:02:46.148Z,27.88
2022-07-29T18:07:47.762Z,27.81
2022-07-29T18:12:49.451Z,27.30
2022-07-29T18:17:56.725Z,26.81
2022-07-29T18:23:01.186Z,26.58
2022-07-29T18:28:08.847Z,26.41
2022-07-29T18:33:22.009Z,26.21
2022-07-29T18:38:24.012Z,26.06
2022-07-29T18:43:43.171Z,25.92
2022-07-29T18:48:53.629Z,25.66
2022-07-29T18:53:59.425Z,25.68
2022-07-29T18:59:04.925Z,25.73
2022-07-29T19:04:06.429Z,25.80
2022-07-29T19:09:15.558Z,25.88
2022-07-29T19:14:19.258Z,25.92
2022-07-29T19:19:23.867Z,25.97
2022-07-29T19:24:25.390Z,25.99
2022-07-29T19:29:27.487Z,26.03
2022-07-29T19:34:31.293Z,26.05
2022-07-29T19:39:35.267Z,26.06
2022-07-29T19:44:54.583Z,26.07
2022-07-29T19:49:56.231Z,26.07
2022-07-29T19:55:07.608Z,26.05
2022-07-29T20:00:11.611Z,25.97
2022-07-29T20:05:13.292Z,25.89
2022-07-29T20:10:20.693Z,25.79
2022-07-29T20:15:26.877Z,25.64
2022-07-29T20:20:29.916Z,25.47
2022-07-29T20:25:31.542Z,25.30
2022-07-29T20:30:38.584Z,25.21
2022-07-29T20:35:40.951Z,25.15
2022-07-29T20:40:42.570Z,25.02
2022-07-29T20:45:46.757Z,24.92
2022-07-29T20:50:49.942Z,24.85
2022-07-29T20:55:51.606Z,24.77
2022-07-29T21:00:53.155Z,24.70
2022-07-29T21:05:57.274Z,24.58
2022-07-29T21:10:58.860Z,24.49
2022-07-29T21:16:14.835Z,24.37
2022-07-29T21:21:20.220Z,24.24
2022-07-29T21:26:24.188Z,24.08
2022-07-29T21:31:29.695Z,23.93
2022-07-29T21:36:48.277Z,23.79
2022-07-29T21:42:07.929Z,23.66
2022-07-29T21:47:11.946Z,23.61
2022-07-29T21:52:18.584Z,23.58
2022-07-29T21:57:26.547Z,23.56
2022-07-29T22:02:30.735Z,23.56
2022-07-29T22:07:54.711Z,23.64
2022-07-29T22:12:56.514Z,23.71
2022-07-29T22:18:01.157Z,23.76
2022-07-29T22:23:02.725Z,23.78
2022-07-29T22:28:06.687Z,23.83
2022-07-29T22:33:08.194Z,23.87
2022-07-29T22:38:13.193Z,23.86
2022-07-29T22:43:16.815Z,23.85
2022-07-29T22:48:19.930Z,23.82
2022-07-29T22:53:22.067Z,23.79
2022-07-29T22:58:23.611Z,23.78
2022-07-29T23:03:31.186Z,23.74
2022-07-29T23:08:36.222Z,23.72
2022-07-29T23:13:40.188Z,23.70
2022-07-29T23:18:48.826Z,23.68
2022-07-29T23:23:58.599Z,23.67
2022-07-29T23:29:00.221Z,23.66
2022-07-29T23:34:02.400Z,23.63
2022-07-29T23:39:04.116Z,23.60
2022-07-29T23:44:07.714Z,23.57
2022-07-29T23:49:13.878Z,23.54
2022-07-29T23:54:20.280Z,23.52
2022-07-29T23:59:21.854Z,23.50
